sensor_id;sensor_type;location;lat;lon;timestamp;temperature;humidity
22714;DHT22;11524;50.846;4.326;2022-12-08T00:01:10;16.10;66.10
22714;DHT22;11524;50.846;4.326;2022-12-08T00:03:37;16.10;65.80
22714;DHT22;11524;50.846;4.326;2022-12-08T00:06:04;16.10;66.20
22714;DHT22;11524;50.846;4.326;2022-12-08T00:08:48;16.10;66.10
22714;DHT22;11524;50.846;4.326;2022-12-08T00:11:33;16.20;65.90
22714;DHT22;11524;50.846;4.326;2022-12-08T00:13:59;16.10;65.70
22714;DHT22;11524;50.846;4.326;2022-12-08T00:16:25;16.10;65.80
22714;DHT22;11524;50.846;4.326;2022-12-08T00:18:50;16.20;66.00
22714;DHT22;11524;50.846;4.326;2022-12-08T00:21:16;16.20;66.10
22714;DHT22;11524;50.846;4.326;2022-12-08T00:23:42;16.10;65.80
22714;DHT22;11524;50.846;4.326;2022-12-08T00:26:07;16.10;65.90
22714;DHT22;11524;50.846;4.326;2022-12-08T00:28:34;16.20;66.00
22714;DHT22;11524;50.846;4.326;2022-12-08T00:30:59;16.10;66.00
22714;DHT22;11524;50.846;4.326;2022-12-08T00:33:31;16.10;66.50
22714;DHT22;11524;50.846;4.326;2022-12-08T00:35:56;16.10;66.90
22714;DHT22;11524;50.846;4.326;2022-12-08T00:38:22;16.10;66.70
22714;DHT22;11524;50.846;4.326;2022-12-08T00:40:47;16.10;66.90
22714;DHT22;11524;50.846;4.326;2022-12-08T00:43:13;16.10;66.60
22714;DHT22;11524;50.846;4.326;2022-12-08T00:45:39;16.10;66.50
22714;DHT22;11524;50.846;4.326;2022-12-08T00:48:05;16.00;66.50
22714;DHT22;11524;50.846;4.326;2022-12-08T00:50:31;16.10;66.40
22714;DHT22;11524;50.846;4.326;2022-12-08T00:52:57;16.10;66.40
22714;DHT22;11524;50.846;4.326;2022-12-08T00:55:22;16.00;66.40
22714;DHT22;11524;50.846;4.326;2022-12-08T00:57:48;16.10;66.10
22714;DHT22;11524;50.846;4.326;2022-12-08T01:00:14;16.10;66.40
22714;DHT22;11524;50.846;4.326;2022-12-08T01:02:40;16.10;66.40
22714;DHT22;11524;50.846;4.326;2022-12-08T01:05:06;16.10;66.30
22714;DHT22;11524;50.846;4.326;2022-12-08T01:07:32;16.00;66.10
22714;DHT22;11524;50.846;4.326;2022-12-08T01:09:57;16.00;66.30
22714;DHT22;11524;50.846;4.326;2022-12-08T01:12:23;16.00;66.00
22714;DHT22;11524;50.846;4.326;2022-12-08T01:14:49;16.00;66.40
22714;DHT22;11524;50.846;4.326;2022-12-08T01:17:14;16.00;66.00
22714;DHT22;11524;50.846;4.326;2022-12-08T01:19:40;16.00;66.50
22714;DHT22;11524;50.846;4.326;2022-12-08T01:22:05;16.00;66.20
22714;DHT22;11524;50.846;4.326;2022-12-08T01:24:31;16.00;66.70
22714;DHT22;11524;50.846;4.326;2022-12-08T01:26:57;16.00;66.70
22714;DHT22;11524;50.846;4.326;2022-12-08T01:29:22;16.00;66.70
22714;DHT22;11524;50.846;4.326;2022-12-08T01:31:48;16.00;66.80
22714;DHT22;11524;50.846;4.326;2022-12-08T01:34:13;16.00;67.00
22714;DHT22;11524;50.846;4.326;2022-12-08T01:36:39;16.00;66.50
22714;DHT22;11524;50.846;4.326;2022-12-08T01:39:09;16.00;66.40
22714;DHT22;11524;50.846;4.326;2022-12-08T01:41:37;16.00;66.20
22714;DHT22;11524;50.846;4.326;2022-12-08T01:46:43;16.00;66.40
22714;DHT22;11524;50.846;4.326;2022-12-08T01:54:38;16.00;66.50
22714;DHT22;11524;50.846;4.326;2022-12-08T01:57:15;16.00;66.40
22714;DHT22;11524;50.846;4.326;2022-12-08T01:59:46;16.00;66.50
22714;DHT22;11524;50.846;4.326;2022-12-08T02:02:12;16.00;66.60
22714;DHT22;11524;50.846;4.326;2022-12-08T02:04:38;15.90;61.70
22714;DHT22;11524;50.846;4.326;2022-12-08T02:07:06;15.90;61.40
22714;DHT22;11524;50.846;4.326;2022-12-08T02:09:32;15.90;60.90
22714;DHT22;11524;50.846;4.326;2022-12-08T02:11:58;15.80;61.30
22714;DHT22;11524;50.846;4.326;2022-12-08T02:14:24;15.80;61.50
22714;DHT22;11524;50.846;4.326;2022-12-08T02:17:03;15.80;61.30
22714;DHT22;11524;50.846;4.326;2022-12-08T02:22:32;15.80;60.40
22714;DHT22;11524;50.846;4.326;2022-12-08T02:25:12;15.70;60.60
22714;DHT22;11524;50.846;4.326;2022-12-08T02:31:24;15.70;60.50
22714;DHT22;11524;50.846;4.326;2022-12-08T02:36:45;15.60;61.20
22714;DHT22;11524;50.846;4.326;2022-12-08T02:39:49;15.60;60.60
22714;DHT22;11524;50.846;4.326;2022-12-08T02:42:26;15.60;60.40
22714;DHT22;11524;50.846;4.326;2022-12-08T02:45:11;15.60;61.40
22714;DHT22;11524;50.846;4.326;2022-12-08T02:47:39;15.60;60.80
22714;DHT22;11524;50.846;4.326;2022-12-08T02:50:05;15.50;60.90
22714;DHT22;11524;50.846;4.326;2022-12-08T02:55:29;15.50;60.70
22714;DHT22;11524;50.846;4.326;2022-12-08T03:00:52;15.50;60.00
22714;DHT22;11524;50.846;4.326;2022-12-08T03:03:30;15.60;60.30
22714;DHT22;11524;50.846;4.326;2022-12-08T03:06:38;15.50;60.30
22714;DHT22;11524;50.846;4.326;2022-12-08T03:09:18;15.50;59.70
22714;DHT22;11524;50.846;4.326;2022-12-08T03:14:36;15.40;60.30
22714;DHT22;11524;50.846;4.326;2022-12-08T03:17:03;15.40;59.90
22714;DHT22;11524;50.846;4.326;2022-12-08T03:19:33;15.40;60.50
22714;DHT22;11524;50.846;4.326;2022-12-08T03:21:59;15.40;60.30
22714;DHT22;11524;50.846;4.326;2022-12-08T03:24:36;15.40;60.00
22714;DHT22;11524;50.846;4.326;2022-12-08T03:29:35;15.40;60.70
22714;DHT22;11524;50.846;4.326;2022-12-08T03:34:45;15.40;60.20
22714;DHT22;11524;50.846;4.326;2022-12-08T03:37:12;15.30;60.20
22714;DHT22;11524;50.846;4.326;2022-12-08T03:39:37;15.30;60.40
22714;DHT22;11524;50.846;4.326;2022-12-08T03:42:03;15.40;60.20
22714;DHT22;11524;50.846;4.326;2022-12-08T03:44:28;15.40;60.60
22714;DHT22;11524;50.846;4.326;2022-12-08T03:46:54;15.30;60.10
22714;DHT22;11524;50.846;4.326;2022-12-08T03:49:19;15.30;60.20
22714;DHT22;11524;50.846;4.326;2022-12-08T03:51:45;15.30;60.30
22714;DHT22;11524;50.846;4.326;2022-12-08T03:54:11;15.40;60.40
22714;DHT22;11524;50.846;4.326;2022-12-08T03:56:37;15.30;60.40
22714;DHT22;11524;50.846;4.326;2022-12-08T03:59:04;15.30;60.00
22714;DHT22;11524;50.846;4.326;2022-12-08T04:01:30;15.30;60.90
22714;DHT22;11524;50.846;4.326;2022-12-08T04:03:56;15.30;59.90
22714;DHT22;11524;50.846;4.326;2022-12-08T04:06:22;15.30;60.00
22714;DHT22;11524;50.846;4.326;2022-12-08T04:08:48;15.30;59.90
22714;DHT22;11524;50.846;4.326;2022-12-08T04:11:14;15.20;60.40
22714;DHT22;11524;50.846;4.326;2022-12-08T04:13:41;15.30;60.30
22714;DHT22;11524;50.846;4.326;2022-12-08T04:16:07;15.30;60.20
22714;DHT22;11524;50.846;4.326;2022-12-08T04:18:34;15.20;60.50
22714;DHT22;11524;50.846;4.326;2022-12-08T04:20:59;15.20;60.10
22714;DHT22;11524;50.846;4.326;2022-12-08T04:23:25;15.20;60.20
22714;DHT22;11524;50.846;4.326;2022-12-08T04:25:51;15.20;60.20
22714;DHT22;11524;50.846;4.326;2022-12-08T04:28:17;15.20;59.90
22714;DHT22;11524;50.846;4.326;2022-12-08T04:30:43;15.20;59.90
22714;DHT22;11524;50.846;4.326;2022-12-08T04:33:09;15.20;60.40
22714;DHT22;11524;50.846;4.326;2022-12-08T04:35:35;15.20;60.30
22714;DHT22;11524;50.846;4.326;2022-12-08T04:38:00;15.20;60.30
22714;DHT22;11524;50.846;4.326;2022-12-08T04:40:26;15.10;60.20
22714;DHT22;11524;50.846;4.326;2022-12-08T04:42:52;15.20;60.00
22714;DHT22;11524;50.846;4.326;2022-12-08T04:45:18;15.20;60.10
22714;DHT22;11524;50.846;4.326;2022-12-08T04:47:43;15.20;60.00
22714;DHT22;11524;50.846;4.326;2022-12-08T04:50:09;15.10;60.20
22714;DHT22;11524;50.846;4.326;2022-12-08T04:52:35;15.10;60.20
22714;DHT22;11524;50.846;4.326;2022-12-08T04:55:01;15.10;60.10
22714;DHT22;11524;50.846;4.326;2022-12-08T04:57:27;15.30;60.10
22714;DHT22;11524;50.846;4.326;2022-12-08T04:59:52;15.10;60.20
22714;DHT22;11524;50.846;4.326;2022-12-08T05:02:18;15.10;60.30
22714;DHT22;11524;50.846;4.326;2022-12-08T05:04:43;15.10;60.10
22714;DHT22;11524;50.846;4.326;2022-12-08T05:07:09;15.20;60.40
22714;DHT22;11524;50.846;4.326;2022-12-08T05:09:34;15.20;60.40
22714;DHT22;11524;50.846;4.326;2022-12-08T05:12:00;15.20;60.40
22714;DHT22;11524;50.846;4.326;2022-12-08T05:14:26;15.20;60.20
22714;DHT22;11524;50.846;4.326;2022-12-08T05:16:52;15.10;60.00
22714;DHT22;11524;50.846;4.326;2022-12-08T05:19:17;15.10;60.00
22714;DHT22;11524;50.846;4.326;2022-12-08T05:21:43;15.10;59.80
22714;DHT22;11524;50.846;4.326;2022-12-08T05:24:09;15.10;59.80
22714;DHT22;11524;50.846;4.326;2022-12-08T05:26:35;15.10;59.90
22714;DHT22;11524;50.846;4.326;2022-12-08T05:29:02;15.10;60.10
22714;DHT22;11524;50.846;4.326;2022-12-08T05:31:28;15.20;59.80
22714;DHT22;11524;50.846;4.326;2022-12-08T05:33:53;15.10;59.70
22714;DHT22;11524;50.846;4.326;2022-12-08T05:36:19;15.10;59.50
22714;DHT22;11524;50.846;4.326;2022-12-08T05:38:45;15.20;59.70
22714;DHT22;11524;50.846;4.326;2022-12-08T05:41:18;15.10;59.70
22714;DHT22;11524;50.846;4.326;2022-12-08T05:43:44;15.10;59.80
22714;DHT22;11524;50.846;4.326;2022-12-08T05:46:10;15.00;59.50
22714;DHT22;11524;50.846;4.326;2022-12-08T05:48:36;15.10;59.60
22714;DHT22;11524;50.846;4.326;2022-12-08T05:51:02;15.10;59.40
22714;DHT22;11524;50.846;4.326;2022-12-08T05:53:28;15.10;59.60
22714;DHT22;11524;50.846;4.326;2022-12-08T05:55:54;15.10;59.50
22714;DHT22;11524;50.846;4.326;2022-12-08T05:58:21;15.10;59.30
22714;DHT22;11524;50.846;4.326;2022-12-08T06:00:48;15.00;59.30
22714;DHT22;11524;50.846;4.326;2022-12-08T06:03:15;15.10;59.30
22714;DHT22;11524;50.846;4.326;2022-12-08T06:05:42;15.10;59.40
22714;DHT22;11524;50.846;4.326;2022-12-08T06:08:08;15.00;59.60
22714;DHT22;11524;50.846;4.326;2022-12-08T06:10:34;15.10;59.60
22714;DHT22;11524;50.846;4.326;2022-12-08T06:12:59;15.30;58.80
22714;DHT22;11524;50.846;4.326;2022-12-08T06:15:25;15.40;58.20
22714;DHT22;11524;50.846;4.326;2022-12-08T06:17:51;15.60;57.90
22714;DHT22;11524;50.846;4.326;2022-12-08T06:20:17;15.70;57.40
22714;DHT22;11524;50.846;4.326;2022-12-08T06:22:42;15.80;57.80
22714;DHT22;11524;50.846;4.326;2022-12-08T06:25:08;16.00;56.50
22714;DHT22;11524;50.846;4.326;2022-12-08T06:27:34;16.00;56.30
22714;DHT22;11524;50.846;4.326;2022-12-08T06:29:59;16.10;55.80
22714;DHT22;11524;50.846;4.326;2022-12-08T06:32:25;16.20;55.40
22714;DHT22;11524;50.846;4.326;2022-12-08T06:34:51;16.30;54.90
22714;DHT22;11524;50.846;4.326;2022-12-08T06:37:17;16.40;54.70
22714;DHT22;11524;50.846;4.326;2022-12-08T06:39:42;16.40;54.50
22714;DHT22;11524;50.846;4.326;2022-12-08T06:42:08;16.60;54.30
22714;DHT22;11524;50.846;4.326;2022-12-08T06:44:52;16.60;54.10
22714;DHT22;11524;50.846;4.326;2022-12-08T06:47:20;16.60;53.60
22714;DHT22;11524;50.846;4.326;2022-12-08T06:49:45;16.60;53.60
22714;DHT22;11524;50.846;4.326;2022-12-08T06:52:11;16.60;53.60
22714;DHT22;11524;50.846;4.326;2022-12-08T06:54:37;16.70;53.70
22714;DHT22;11524;50.846;4.326;2022-12-08T06:57:02;16.70;54.80
22714;DHT22;11524;50.846;4.326;2022-12-08T06:59:29;16.60;53.90
22714;DHT22;11524;50.846;4.326;2022-12-08T07:01:54;16.50;54.00
22714;DHT22;11524;50.846;4.326;2022-12-08T07:04:20;16.50;54.00
22714;DHT22;11524;50.846;4.326;2022-12-08T07:06:45;16.50;55.20
22714;DHT22;11524;50.846;4.326;2022-12-08T07:09:11;16.40;54.10
22714;DHT22;11524;50.846;4.326;2022-12-08T07:11:37;16.40;54.30
22714;DHT22;11524;50.846;4.326;2022-12-08T07:14:03;16.40;54.20
22714;DHT22;11524;50.846;4.326;2022-12-08T07:16:29;16.30;54.20
22714;DHT22;11524;50.846;4.326;2022-12-08T07:18:54;16.30;54.00
22714;DHT22;11524;50.846;4.326;2022-12-08T07:21:20;16.30;54.20
22714;DHT22;11524;50.846;4.326;2022-12-08T07:23:47;16.20;54.50
22714;DHT22;11524;50.846;4.326;2022-12-08T07:26:12;16.10;54.60
22714;DHT22;11524;50.846;4.326;2022-12-08T07:28:39;16.10;54.60
22714;DHT22;11524;50.846;4.326;2022-12-08T07:31:06;16.00;54.90
22714;DHT22;11524;50.846;4.326;2022-12-08T07:33:33;16.00;55.60
22714;DHT22;11524;50.846;4.326;2022-12-08T07:36:01;15.90;55.80
22714;DHT22;11524;50.846;4.326;2022-12-08T07:38:27;15.80;55.40
22714;DHT22;11524;50.846;4.326;2022-12-08T07:40:54;15.80;55.40
22714;DHT22;11524;50.846;4.326;2022-12-08T07:43:20;15.80;55.80
22714;DHT22;11524;50.846;4.326;2022-12-08T07:45:46;15.70;55.70
22714;DHT22;11524;50.846;4.326;2022-12-08T07:48:12;15.70;55.90
22714;DHT22;11524;50.846;4.326;2022-12-08T07:50:38;15.70;55.90
22714;DHT22;11524;50.846;4.326;2022-12-08T07:53:04;15.60;56.30
22714;DHT22;11524;50.846;4.326;2022-12-08T07:55:30;15.60;56.20
22714;DHT22;11524;50.846;4.326;2022-12-08T07:57:56;15.60;56.30
22714;DHT22;11524;50.846;4.326;2022-12-08T08:00:21;15.50;56.20
22714;DHT22;11524;50.846;4.326;2022-12-08T08:02:47;15.50;56.20
22714;DHT22;11524;50.846;4.326;2022-12-08T08:05:12;15.60;56.50
22714;DHT22;11524;50.846;4.326;2022-12-08T08:07:39;15.60;56.40
22714;DHT22;11524;50.846;4.326;2022-12-08T08:10:08;15.50;56.40
22714;DHT22;11524;50.846;4.326;2022-12-08T08:12:35;15.40;56.60
22714;DHT22;11524;50.846;4.326;2022-12-08T08:15:06;15.40;56.60
22714;DHT22;11524;50.846;4.326;2022-12-08T08:17:33;15.40;56.40
22714;DHT22;11524;50.846;4.326;2022-12-08T08:19:58;15.40;56.50
22714;DHT22;11524;50.846;4.326;2022-12-08T08:22:25;15.30;56.50
22714;DHT22;11524;50.846;4.326;2022-12-08T08:24:50;15.40;56.20
22714;DHT22;11524;50.846;4.326;2022-12-08T08:27:16;15.30;56.50
22714;DHT22;11524;50.846;4.326;2022-12-08T08:29:41;15.30;56.50
22714;DHT22;11524;50.846;4.326;2022-12-08T08:32:07;15.30;56.70
22714;DHT22;11524;50.846;4.326;2022-12-08T08:34:33;15.30;56.60
22714;DHT22;11524;50.846;4.326;2022-12-08T08:36:58;15.30;56.50
22714;DHT22;11524;50.846;4.326;2022-12-08T08:39:24;15.30;56.40
22714;DHT22;11524;50.846;4.326;2022-12-08T08:41:49;15.30;56.50
22714;DHT22;11524;50.846;4.326;2022-12-08T08:44:15;15.30;56.40
22714;DHT22;11524;50.846;4.326;2022-12-08T08:46:40;15.20;56.90
22714;DHT22;11524;50.846;4.326;2022-12-08T08:49:06;15.20;56.30
22714;DHT22;11524;50.846;4.326;2022-12-08T08:51:32;15.30;56.30
22714;DHT22;11524;50.846;4.326;2022-12-08T08:53:58;15.20;56.20
22714;DHT22;11524;50.846;4.326;2022-12-08T08:56:23;15.30;56.30
22714;DHT22;11524;50.846;4.326;2022-12-08T08:58:50;15.20;55.90
22714;DHT22;11524;50.846;4.326;2022-12-08T09:01:20;15.20;56.00
22714;DHT22;11524;50.846;4.326;2022-12-08T09:03:47;15.20;56.10
22714;DHT22;11524;50.846;4.326;2022-12-08T09:06:13;15.20;56.10
22714;DHT22;11524;50.846;4.326;2022-12-08T09:08:40;15.20;56.00
22714;DHT22;11524;50.846;4.326;2022-12-08T09:11:06;15.20;55.90
22714;DHT22;11524;50.846;4.326;2022-12-08T09:13:32;15.20;56.20
22714;DHT22;11524;50.846;4.326;2022-12-08T09:16:00;15.30;56.10
22714;DHT22;11524;50.846;4.326;2022-12-08T09:18:27;15.30;55.90
22714;DHT22;11524;50.846;4.326;2022-12-08T09:20:53;15.30;55.90
22714;DHT22;11524;50.846;4.326;2022-12-08T09:23:19;15.30;56.00
22714;DHT22;11524;50.846;4.326;2022-12-08T09:25:45;15.30;56.00
22714;DHT22;11524;50.846;4.326;2022-12-08T09:28:11;15.30;55.90
22714;DHT22;11524;50.846;4.326;2022-12-08T09:30:37;15.30;55.80
22714;DHT22;11524;50.846;4.326;2022-12-08T09:33:03;15.20;55.90
22714;DHT22;11524;50.846;4.326;2022-12-08T09:35:28;15.40;55.80
22714;DHT22;11524;50.846;4.326;2022-12-08T09:37:54;15.30;55.60
22714;DHT22;11524;50.846;4.326;2022-12-08T09:40:22;15.30;55.50
22714;DHT22;11524;50.846;4.326;2022-12-08T09:43:17;15.30;55.40
22714;DHT22;11524;50.846;4.326;2022-12-08T09:45:48;15.30;55.30
22714;DHT22;11524;50.846;4.326;2022-12-08T09:48:31;15.20;55.70
22714;DHT22;11524;50.846;4.326;2022-12-08T09:50:59;15.20;55.10
22714;DHT22;11524;50.846;4.326;2022-12-08T09:53:29;15.30;55.70
22714;DHT22;11524;50.846;4.326;2022-12-08T09:55:58;15.30;55.30
22714;DHT22;11524;50.846;4.326;2022-12-08T09:58:37;15.30;55.50
22714;DHT22;11524;50.846;4.326;2022-12-08T10:01:11;15.30;55.20
22714;DHT22;11524;50.846;4.326;2022-12-08T10:03:37;15.30;55.50
22714;DHT22;11524;50.846;4.326;2022-12-08T10:12:16;15.30;55.00
22714;DHT22;11524;50.846;4.326;2022-12-08T10:17:45;15.30;54.80
22714;DHT22;11524;50.846;4.326;2022-12-08T10:20:22;15.40;54.60
22714;DHT22;11524;50.846;4.326;2022-12-08T10:22:55;15.40;54.70
22714;DHT22;11524;50.846;4.326;2022-12-08T10:25:43;15.40;54.80
22714;DHT22;11524;50.846;4.326;2022-12-08T10:28:10;15.50;54.40
22714;DHT22;11524;50.846;4.326;2022-12-08T10:30:36;15.40;55.10
22714;DHT22;11524;50.846;4.326;2022-12-08T10:33:02;15.40;54.80
22714;DHT22;11524;50.846;4.326;2022-12-08T10:35:50;15.50;54.90
22714;DHT22;11524;50.846;4.326;2022-12-08T10:40:48;15.50;54.80
22714;DHT22;11524;50.846;4.326;2022-12-08T10:43:20;15.50;54.80
22714;DHT22;11524;50.846;4.326;2022-12-08T10:45:46;15.50;54.70
22714;DHT22;11524;50.846;4.326;2022-12-08T10:48:23;15.50;54.90
22714;DHT22;11524;50.846;4.326;2022-12-08T10:50:54;15.40;54.80
22714;DHT22;11524;50.846;4.326;2022-12-08T10:55:50;15.40;54.80
22714;DHT22;11524;50.846;4.326;2022-12-08T10:58:32;15.40;54.80
22714;DHT22;11524;50.846;4.326;2022-12-08T11:03:51;15.40;54.20
22714;DHT22;11524;50.846;4.326;2022-12-08T11:06:36;15.40;54.40
22714;DHT22;11524;50.846;4.326;2022-12-08T11:11:46;15.40;54.50
22714;DHT22;11524;50.846;4.326;2022-12-08T11:14:21;15.50;54.50
22714;DHT22;11524;50.846;4.326;2022-12-08T11:16:52;15.50;54.40
22714;DHT22;11524;50.846;4.326;2022-12-08T11:19:19;15.50;54.60
22714;DHT22;11524;50.846;4.326;2022-12-08T11:21:45;15.50;54.30
22714;DHT22;11524;50.846;4.326;2022-12-08T11:26:47;15.70;53.90
22714;DHT22;11524;50.846;4.326;2022-12-08T11:29:14;15.70;53.90
22714;DHT22;11524;50.846;4.326;2022-12-08T11:31:45;16.00;53.40
22714;DHT22;11524;50.846;4.326;2022-12-08T11:34:19;15.90;53.80
22714;DHT22;11524;50.846;4.326;2022-12-08T11:36:48;16.00;54.80
22714;DHT22;11524;50.846;4.326;2022-12-08T11:39:15;16.00;52.90
22714;DHT22;11524;50.846;4.326;2022-12-08T11:41:43;16.10;53.20
22714;DHT22;11524;50.846;4.326;2022-12-08T11:47:14;16.00;53.00
22714;DHT22;11524;50.846;4.326;2022-12-08T11:49:43;16.00;53.10
22714;DHT22;11524;50.846;4.326;2022-12-08T11:52:25;16.00;53.10
22714;DHT22;11524;50.846;4.326;2022-12-08T11:55:17;16.00;53.00
22714;DHT22;11524;50.846;4.326;2022-12-08T11:57:44;16.00;52.60
22714;DHT22;11524;50.846;4.326;2022-12-08T12:00:12;16.10;53.70
22714;DHT22;11524;50.846;4.326;2022-12-08T12:02:44;16.00;53.30
22714;DHT22;11524;50.846;4.326;2022-12-08T12:05:45;16.00;53.40
22714;DHT22;11524;50.846;4.326;2022-12-08T12:17:03;16.00;53.10
22714;DHT22;11524;50.846;4.326;2022-12-08T12:19:34;16.00;52.80
22714;DHT22;11524;50.846;4.326;2022-12-08T12:22:16;16.00;53.50
22714;DHT22;11524;50.846;4.326;2022-12-08T12:24:46;16.00;53.50
22714;DHT22;11524;50.846;4.326;2022-12-08T12:29:45;15.90;53.70
22714;DHT22;11524;50.846;4.326;2022-12-08T12:32:12;15.90;53.60
22714;DHT22;11524;50.846;4.326;2022-12-08T12:34:50;15.90;53.60
22714;DHT22;11524;50.846;4.326;2022-12-08T12:37:37;15.90;53.30
22714;DHT22;11524;50.846;4.326;2022-12-08T12:40:35;15.90;53.20
22714;DHT22;11524;50.846;4.326;2022-12-08T12:45:32;15.90;53.70
22714;DHT22;11524;50.846;4.326;2022-12-08T12:58:34;16.10;53.50
22714;DHT22;11524;50.846;4.326;2022-12-08T13:03:43;16.10;53.50
22714;DHT22;11524;50.846;4.326;2022-12-08T13:06:10;16.00;52.90
22714;DHT22;11524;50.846;4.326;2022-12-08T13:08:39;16.00;53.20
22714;DHT22;11524;50.846;4.326;2022-12-08T13:11:08;16.10;53.20
22714;DHT22;11524;50.846;4.326;2022-12-08T13:13:37;16.10;53.20
22714;DHT22;11524;50.846;4.326;2022-12-08T13:16:21;16.00;53.40
22714;DHT22;11524;50.846;4.326;2022-12-08T13:18:49;16.10;53.10
22714;DHT22;11524;50.846;4.326;2022-12-08T13:21:18;16.20;53.30
22714;DHT22;11524;50.846;4.326;2022-12-08T13:23:46;16.10;53.10
22714;DHT22;11524;50.846;4.326;2022-12-08T13:26:16;16.10;53.10
22714;DHT22;11524;50.846;4.326;2022-12-08T13:31:45;16.00;52.50
22714;DHT22;11524;50.846;4.326;2022-12-08T13:45:15;16.00;53.40
22714;DHT22;11524;50.846;4.326;2022-12-08T13:47:51;15.90;53.50
22714;DHT22;11524;50.846;4.326;2022-12-08T13:53:20;15.90;53.50
22714;DHT22;11524;50.846;4.326;2022-12-08T13:55:51;15.90;53.60
22714;DHT22;11524;50.846;4.326;2022-12-08T13:58:30;15.90;53.00
22714;DHT22;11524;50.846;4.326;2022-12-08T14:01:21;15.90;53.50
22714;DHT22;11524;50.846;4.326;2022-12-08T14:03:53;15.90;53.00
22714;DHT22;11524;50.846;4.326;2022-12-08T14:06:44;15.80;53.40
22714;DHT22;11524;50.846;4.326;2022-12-08T14:09:14;15.90;53.20
22714;DHT22;11524;50.846;4.326;2022-12-08T14:11:46;15.90;53.70
22714;DHT22;11524;50.846;4.326;2022-12-08T14:14:32;15.80;53.60
22714;DHT22;11524;50.846;4.326;2022-12-08T14:17:11;15.80;53.50
22714;DHT22;11524;50.846;4.326;2022-12-08T14:19:36;15.80;53.80
22714;DHT22;11524;50.846;4.326;2022-12-08T14:22:20;15.80;53.70
22714;DHT22;11524;50.846;4.326;2022-12-08T14:24:49;15.80;53.70
22714;DHT22;11524;50.846;4.326;2022-12-08T14:27:20;15.80;53.80
22714;DHT22;11524;50.846;4.326;2022-12-08T14:29:54;15.80;54.10
22714;DHT22;11524;50.846;4.326;2022-12-08T14:32:27;15.80;54.20
22714;DHT22;11524;50.846;4.326;2022-12-08T14:34:57;15.80;54.40
22714;DHT22;11524;50.846;4.326;2022-12-08T14:37:26;15.80;54.30
22714;DHT22;11524;50.846;4.326;2022-12-08T14:39:56;15.80;54.30
22714;DHT22;11524;50.846;4.326;2022-12-08T14:42:24;15.70;54.30
22714;DHT22;11524;50.846;4.326;2022-12-08T14:44:59;15.70;54.30
22714;DHT22;11524;50.846;4.326;2022-12-08T14:47:31;15.70;54.40
22714;DHT22;11524;50.846;4.326;2022-12-08T14:49:57;15.70;54.30
22714;DHT22;11524;50.846;4.326;2022-12-08T14:52:23;15.70;54.40
22714;DHT22;11524;50.846;4.326;2022-12-08T14:54:50;15.80;54.60
22714;DHT22;11524;50.846;4.326;2022-12-08T14:57:16;15.70;55.10
22714;DHT22;11524;50.846;4.326;2022-12-08T14:59:43;15.70;55.80
22714;DHT22;11524;50.846;4.326;2022-12-08T15:05:08;15.70;55.50
22714;DHT22;11524;50.846;4.326;2022-12-08T15:07:50;15.70;54.80
22714;DHT22;11524;50.846;4.326;2022-12-08T15:10:18;15.70;55.00
22714;DHT22;11524;50.846;4.326;2022-12-08T15:13:19;15.70;55.20
22714;DHT22;11524;50.846;4.326;2022-12-08T15:15:54;15.70;54.80
22714;DHT22;11524;50.846;4.326;2022-12-08T15:18:38;15.60;54.90
22714;DHT22;11524;50.846;4.326;2022-12-08T15:21:06;15.70;54.80
22714;DHT22;11524;50.846;4.326;2022-12-08T15:23:44;15.60;55.10
22714;DHT22;11524;50.846;4.326;2022-12-08T15:26:22;15.60;54.60
22714;DHT22;11524;50.846;4.326;2022-12-08T15:28:48;15.60;54.80
22714;DHT22;11524;50.846;4.326;2022-12-08T15:31:13;15.60;55.00
22714;DHT22;11524;50.846;4.326;2022-12-08T15:33:39;15.60;54.90
22714;DHT22;11524;50.846;4.326;2022-12-08T15:36:05;15.60;55.70
22714;DHT22;11524;50.846;4.326;2022-12-08T15:38:31;15.60;55.10
22714;DHT22;11524;50.846;4.326;2022-12-08T15:40:59;15.60;55.00
22714;DHT22;11524;50.846;4.326;2022-12-08T15:43:26;15.60;54.90
22714;DHT22;11524;50.846;4.326;2022-12-08T15:45:52;15.70;55.10
22714;DHT22;11524;50.846;4.326;2022-12-08T15:48:21;15.60;55.10
22714;DHT22;11524;50.846;4.326;2022-12-08T15:50:48;15.60;55.00
22714;DHT22;11524;50.846;4.326;2022-12-08T15:53:14;15.60;55.00
22714;DHT22;11524;50.846;4.326;2022-12-08T15:55:41;15.60;55.00
22714;DHT22;11524;50.846;4.326;2022-12-08T15:58:20;15.60;55.20
22714;DHT22;11524;50.846;4.326;2022-12-08T16:00:46;15.60;55.10
22714;DHT22;11524;50.846;4.326;2022-12-08T16:03:27;15.60;55.20
22714;DHT22;11524;50.846;4.326;2022-12-08T16:05:53;15.60;55.10
22714;DHT22;11524;50.846;4.326;2022-12-08T16:08:23;15.60;55.20
22714;DHT22;11524;50.846;4.326;2022-12-08T16:10:49;15.60;55.60
22714;DHT22;11524;50.846;4.326;2022-12-08T16:13:16;15.60;55.50
22714;DHT22;11524;50.846;4.326;2022-12-08T16:16:02;15.50;55.50
22714;DHT22;11524;50.846;4.326;2022-12-08T16:18:34;15.60;55.40
22714;DHT22;11524;50.846;4.326;2022-12-08T16:21:01;15.60;55.20
22714;DHT22;11524;50.846;4.326;2022-12-08T16:23:27;15.50;55.10
22714;DHT22;11524;50.846;4.326;2022-12-08T16:25:53;15.50;55.10
22714;DHT22;11524;50.846;4.326;2022-12-08T16:28:19;15.50;55.20
22714;DHT22;11524;50.846;4.326;2022-12-08T16:30:44;15.60;55.40
22714;DHT22;11524;50.846;4.326;2022-12-08T16:33:13;15.60;55.10
22714;DHT22;11524;50.846;4.326;2022-12-08T16:35:40;15.60;55.10
22714;DHT22;11524;50.846;4.326;2022-12-08T16:38:08;15.60;55.10
22714;DHT22;11524;50.846;4.326;2022-12-08T16:40:35;15.50;55.10
22714;DHT22;11524;50.846;4.326;2022-12-08T16:43:23;15.50;55.10
22714;DHT22;11524;50.846;4.326;2022-12-08T16:45:49;15.50;55.30
22714;DHT22;11524;50.846;4.326;2022-12-08T16:48:14;15.50;55.40
22714;DHT22;11524;50.846;4.326;2022-12-08T16:50:43;15.50;55.60
22714;DHT22;11524;50.846;4.326;2022-12-08T16:53:10;15.50;55.80
22714;DHT22;11524;50.846;4.326;2022-12-08T16:55:37;15.50;55.60
22714;DHT22;11524;50.846;4.326;2022-12-08T16:58:03;15.50;55.80
22714;DHT22;11524;50.846;4.326;2022-12-08T17:00:30;15.50;55.90
22714;DHT22;11524;50.846;4.326;2022-12-08T17:03:04;15.50;55.70
22714;DHT22;11524;50.846;4.326;2022-12-08T17:05:32;15.50;55.90
22714;DHT22;11524;50.846;4.326;2022-12-08T17:07:58;15.50;56.70
22714;DHT22;11524;50.846;4.326;2022-12-08T17:10:27;15.40;56.30
22714;DHT22;11524;50.846;4.326;2022-12-08T17:12:54;15.40;56.20
22714;DHT22;11524;50.846;4.326;2022-12-08T17:15:24;15.50;56.30
22714;DHT22;11524;50.846;4.326;2022-12-08T17:17:50;15.50;56.60
22714;DHT22;11524;50.846;4.326;2022-12-08T17:20:21;15.50;56.40
22714;DHT22;11524;50.846;4.326;2022-12-08T17:22:47;15.40;56.10
22714;DHT22;11524;50.846;4.326;2022-12-08T17:25:13;15.40;56.20